Startpagina
METAR-TAF:

METAR-TAF

Vliegvelden :

Dubai International Airport

Dubai, Verenigde Arabische Emiraten

breedte: 25-15-10N, lengte: 055-21-52E, hoogte: 8 m

Actueel weer

Dit bericht is 36 minuten geleden gemaakt, om 06:00 UTC
Wind 7 kt uit het zuiden
Temperatuur 33°C
Vochtigheid 36%
Druk 1017 hPa
Zicht 10 km of meer
geen wolken onder 1500 m en geen cumulonimbus

METAR: OMDB 220600Z 17007KT CAVOK 33/16 Q1017 NOSIG

Tijdstip: 10:36 (06:36 UTC)

Verwachting

Dit bericht is 1 uur en het 40 minuten geleden gemaakt, om 04:56 UTC
Verwachting geldig van 22 om 06 UTC tot 23 om 12 UTC
Wind 8 kt uit het zuiden
Zicht 10 km of meer
geen wolken onder 1500 m en geen cumulonimbus
Wijzigt naar
van 22 om 08 UTC tot 22 om 10 UTC
Wind 12 kt uit het noordwesten
Wijzigt naar
van 22 om 16 UTC tot 22 om 18 UTC
Wind 5 kt uit het zuidzuidoosten
Wijzigt naar
van 23 om 06 UTC tot 23 om 08 UTC
Wind 14 kt uit het westen

TAF: OMDB 220456Z 2206/2312 18008KT CAVOK BECMG 2208/2210 31012KT BECMG 2216/2218 15005KT BECMG 2306/2308 28014KT

Waarnemingen en weersverwachtingen van meer dan 4000 vliegvelden (METAR en TAF).

De beschikbare stations zijn de gele en rode punten op de kaart.

Ga met uw muis naar het station om de naam te zien.

Klik dan om waarnemingen en weersverwachtingen te zien.

kaart wijzigen: klik op de groene knoppen met een zwart kruis om in te zoomen, op de groene knop met een streepje om uit te zoomen of op de groene pijlen voor aangrenzende kaarten.


METAR-TAF: